Time;durP1;ratioP1;P1;durP2;ratioP2;P2;SDS_P1;SDS_P2;PMS_P1;PMS_P2;Temp;Humidity;BMP_temperature;BMP_pressure;BME280_temperature;BME280_humidity;BME280_pressure;Samples;Min_cycle;Max_cycle;Signal;HPM_P1;HPM_P2
2023/05/11 00:02:17;;;;;;;;;1.00;1.00;;;;;13.11;62.57;99158.41;5037549;28;45710;-68
2023/05/11 00:04:43;;;;;;;;;2.50;2.50;;;;;13.11;63.56;99159.28;5036059;28;46183;-68
2023/05/11 00:07:08;;;;;;;;;2.00;2.00;;;;;13.09;63.50;99157.63;5039198;28;45461;-68
2023/05/11 00:09:34;;;;;;;;;4.00;2.00;;;;;13.05;63.92;99156.94;5035933;28;45468;-68
2023/05/11 00:12:01;;;;;;;;;4.00;4.00;;;;;13.02;63.96;99149.16;5040052;28;45403;-68
2023/05/11 00:14:27;;;;;;;;;2.00;2.00;;;;;13.03;63.27;99156.16;5037031;28;45548;-68
2023/05/11 00:16:52;;;;;;;;;1.00;1.00;;;;;13.03;64.40;99150.88;5039685;28;45377;-68
2023/05/11 00:19:18;;;;;;;;;2.00;2.00;;;;;13.00;64.15;99155.44;5032607;28;45489;-68
2023/05/11 00:21:43;;;;;;;;;1.00;1.00;;;;;12.96;64.31;99149.44;5038035;28;45513;-68
2023/05/11 00:24:09;;;;;;;;;4.75;2.00;;;;;12.91;64.67;99149.66;5014669;28;46264;-68
2023/05/11 00:26:34;;;;;;;;;1.25;1.25;;;;;12.88;64.73;99147.19;5034258;28;45516;-68
2023/05/11 00:28:59;;;;;;;;;1.50;1.50;;;;;12.86;64.41;99146.41;5037061;28;45415;-68
2023/05/11 00:31:25;;;;;;;;;1.50;1.50;;;;;12.87;64.71;99150.78;5037038;28;45516;-68
2023/05/11 00:33:53;;;;;;;;;1.25;1.25;;;;;12.86;64.49;99145.56;5033265;28;46452;-68
2023/05/11 00:36:18;;;;;;;;;2.00;2.00;;;;;12.91;64.85;99135.56;5030850;28;45542;-68
2023/05/11 00:38:44;;;;;;;;;4.25;3.00;;;;;12.95;64.60;99137.16;5034327;28;45547;-68
2023/05/11 00:41:09;;;;;;;;;2.00;2.00;;;;;12.99;64.39;99124.63;5034759;28;45675;-68
2023/05/11 00:43:34;;;;;;;;;2.00;2.00;;;;;13.04;64.44;99135.84;5018628;28;47127;-68
2023/05/11 00:46:02;;;;;;;;;2.00;2.00;;;;;13.08;64.11;99137.38;5039224;28;45524;-68
2023/05/11 00:48:28;;;;;;;;;2.25;2.00;;;;;13.10;64.19;99130.22;5034899;28;45421;-68
2023/05/11 00:50:53;;;;;;;;;1.75;1.25;;;;;13.12;63.88;99125.72;5037078;28;45616;-69
2023/05/11 00:53:19;;;;;;;;;2.00;2.00;;;;;13.13;64.06;99130.94;5040539;28;46218;-68
2023/05/11 00:55:45;;;;;;;;;2.00;2.00;;;;;13.13;64.31;99125.66;5044894;28;45829;-68
2023/05/11 00:58:11;;;;;;;;;2.00;0.60;;;;;13.12;63.86;99123.94;5049468;28;45453;-68
2023/05/11 01:00:36;;;;;;;;;3.25;1.25;;;;;13.12;64.73;99131.00;5027614;28;45393;-68
2023/05/11 01:03:02;;;;;;;;;1.00;1.00;;;;;13.11;64.76;99140.75;5040105;28;45911;-68
2023/05/11 01:05:54;;;;;;;;;2.00;2.00;;;;;13.10;65.01;99114.34;5031603;28;45402;-68
2023/05/11 01:08:29;;;;;;;;;4.00;1.00;;;;;13.13;64.68;99124.78;5023668;28;45528;-68
2023/05/11 01:11:15;;;;;;;;;2.50;1.50;;;;;13.17;64.12;99116.66;5022440;28;45465;-68
2023/05/11 01:13:51;;;;;;;;;2.00;1.50;;;;;13.17;64.62;99114.00;5036379;28;45369;-68
2023/05/11 01:16:25;;;;;;;;;2.00;1.20;;;;;13.19;64.76;99117.44;5035291;28;45487;-68
2023/05/11 01:19:17;;;;;;;;;4.00;2.00;;;;;13.21;64.04;99115.56;5008989;28;45473;-68
2023/05/11 01:21:45;;;;;;;;;1.75;1.75;;;;;13.28;63.64;99118.75;5045944;28;45541;-70
2023/05/11 01:24:25;;;;;;;;;3.00;2.50;;;;;13.36;63.99;99119.22;5045822;28;46376;-68
2023/05/11 01:26:59;;;;;;;;;3.00;1.80;;;;;13.42;63.47;99120.69;5036104;28;45426;-68
2023/05/11 01:30:04;;;;;;;;;1.80;1.80;;;;;13.47;63.00;99113.34;5026466;28;45467;-68
2023/05/11 01:32:32;;;;;;;;;1.25;1.00;;;;;13.53;62.48;99115.69;5037109;28;45468;-68
2023/05/11 01:35:08;;;;;;;;;4.00;2.00;;;;;13.58;62.34;99114.50;5033648;28;45567;-68
2023/05/11 01:37:35;;;;;;;;;1.00;1.00;;;;;13.61;62.39;99111.69;5047298;28;45393;-67
2023/05/11 01:40:09;;;;;;;;;2.75;2.00;;;;;13.67;61.81;99107.88;5031280;28;45474;-68
2023/05/11 01:42:40;;;;;;;;;1.00;1.00;;;;;13.73;62.01;99112.00;5033904;28;45422;-68
2023/05/11 01:45:08;;;;;;;;;1.00;1.00;;;;;13.75;62.53;99126.00;5035634;28;45507;-68
2023/05/11 01:47:38;;;;;;;;;3.00;1.40;;;;;13.70;62.58;99117.47;5039716;28;45453;-68
2023/05/11 01:50:06;;;;;;;;;4.00;3.00;;;;;13.66;63.14;99108.81;5040884;28;45377;-68
2023/05/11 01:52:34;;;;;;;;;2.75;2.00;;;;;13.62;63.03;99121.38;5039203;28;45533;-68
2023/05/11 01:55:02;;;;;;;;;1.80;1.60;;;;;13.58;63.97;99125.09;5031618;28;45510;-68
2023/05/11 01:57:31;;;;;;;;;1.00;1.00;;;;;13.50;65.70;99121.16;5035165;28;45368;-68
2023/05/11 01:59:57;;;;;;;;;2.00;1.20;;;;;13.36;65.21;99123.66;5031372;28;45445;-70
2023/05/11 02:02:25;;;;;;;;;2.50;2.00;;;;;13.23;65.22;99121.66;5036207;28;45505;-69
2023/05/11 02:04:53;;;;;;;;;1.25;1.00;;;;;13.14;66.73;99124.72;5036853;28;46602;-68
2023/05/11 02:07:20;;;;;;;;;2.00;2.00;;;;;13.08;67.00;99117.06;5027277;28;45461;-69
2023/05/11 02:09:48;;;;;;;;;3.20;2.00;;;;;13.03;68.01;99123.56;5034658;28;45405;-69
2023/05/11 02:12:17;;;;;;;;;1.00;1.00;;;;;12.99;67.45;99119.34;5038912;28;45543;-69
2023/05/11 02:14:43;;;;;;;;;1.00;1.00;;;;;13.03;67.26;99120.91;5046963;28;45435;-69
2023/05/11 02:17:10;;;;;;;;;1.60;1.60;;;;;13.07;66.44;99120.66;5046297;28;45665;-69
2023/05/11 02:19:37;;;;;;;;;1.00;1.00;;;;;13.10;66.67;99120.50;5021649;28;45487;-68
2023/05/11 02:22:04;;;;;;;;;1.75;1.75;;;;;13.13;66.36;99111.56;5050398;28;45609;-69
2023/05/11 02:24:30;;;;;;;;;2.00;2.00;;;;;13.13;66.34;99116.84;5048888;28;46063;-69
2023/05/11 02:26:57;;;;;;;;;2.00;1.00;;;;;13.14;66.08;99111.47;5039627;28;45407;-68
2023/05/11 02:29:23;;;;;;;;;2.00;1.00;;;;;13.19;66.42;99121.88;5042740;28;45310;-68
2023/05/11 02:31:55;;;;;;;;;4.75;4.75;;;;;13.18;65.70;99121.00;5050334;28;45483;-69
2023/05/11 02:34:26;;;;;;;;;1.00;1.00;;;;;13.20;65.04;99113.84;5043565;28;46476;-69
2023/05/11 02:37:11;;;;;;;;;2.20;2.00;;;;;13.24;65.81;99109.25;5042985;28;45476;-69
2023/05/11 02:39:40;;;;;;;;;3.25;3.25;;;;;13.28;65.96;99109.00;5018666;28;45553;-69
2023/05/11 02:42:17;;;;;;;;;3.50;3.00;;;;;13.32;66.65;99103.56;5040589;28;45476;-68
2023/05/11 02:44:52;;;;;;;;;4.00;2.25;;;;;13.35;67.06;99103.41;5038534;28;45310;-69
2023/05/11 02:47:20;;;;;;;;;3.00;2.00;;;;;13.35;66.88;99096.31;5038752;28;45386;-69
2023/05/11 02:49:52;;;;;;;;;2.00;2.00;;;;;13.39;67.41;99089.94;5038896;28;45464;-69
2023/05/11 02:52:20;;;;;;;;;3.00;3.00;;;;;13.41;67.90;99098.63;5030327;28;45545;-69
2023/05/11 02:54:48;;;;;;;;;3.00;3.00;;;;;13.41;67.93;99093.34;5038790;28;45741;-69
2023/05/11 02:57:13;;;;;;;;;3.60;3.00;;;;;13.44;67.83;99097.63;5038775;28;45401;-69
2023/05/11 02:59:39;;;;;;;;;3.00;3.00;;;;;13.42;67.88;99087.13;5037412;28;45353;-69
2023/05/11 03:02:05;;;;;;;;;4.00;2.25;;;;;13.41;67.51;99090.69;5033774;28;45376;-69
2023/05/11 03:04:30;;;;;;;;;2.75;2.00;;;;;13.42;67.43;99089.75;5021378;28;47215;-69
2023/05/11 03:06:56;;;;;;;;;2.00;1.25;;;;;13.43;67.42;99087.97;5041512;28;45354;-67
2023/05/11 03:09:21;;;;;;;;;2.50;2.50;;;;;13.44;66.93;99087.88;5040796;28;45553;-68
2023/05/11 03:11:48;;;;;;;;;6.00;3.00;;;;;13.46;67.41;99083.38;5040650;28;45465;-68
2023/05/11 03:14:14;;;;;;;;;6.75;3.00;;;;;13.46;66.43;99086.03;5034738;28;46616;-68
2023/05/11 03:16:40;;;;;;;;;3.00;3.00;;;;;13.45;66.60;99084.31;5015604;28;45491;-68
2023/05/11 03:19:07;;;;;;;;;5.25;3.00;;;;;13.44;66.69;99087.88;5040315;28;45552;-68
2023/05/11 03:21:35;;;;;;;;;2.50;2.50;;;;;13.44;66.96;99076.44;5041610;28;45438;-68
2023/05/11 03:24:00;;;;;;;;;3.75;2.25;;;;;13.46;66.93;99082.50;5038794;28;45670;-68
2023/05/11 03:26:29;;;;;;;;;2.25;2.25;;;;;13.47;67.42;99081.59;5034568;28;45378;-68
2023/05/11 03:28:57;;;;;;;;;4.00;3.00;;;;;13.46;67.29;99074.56;5024952;28;45547;-68
2023/05/11 03:31:23;;;;;;;;;2.50;2.50;;;;;13.46;66.94;99083.38;5033991;28;45413;-68
2023/05/11 03:33:48;;;;;;;;;2.50;2.50;;;;;13.47;66.68;99074.50;5033675;28;45505;-69
2023/05/11 03:36:14;;;;;;;;;2.50;2.25;;;;;13.49;66.34;99075.28;5038868;28;45501;-68
2023/05/11 03:38:40;;;;;;;;;3.75;2.00;;;;;13.47;66.42;99063.03;5040921;28;45414;-68
2023/05/11 03:41:05;;;;;;;;;2.00;2.00;;;;;13.42;66.08;99068.56;5044990;28;45662;-68
2023/05/11 03:43:34;;;;;;;;;2.00;1.50;;;;;13.43;66.75;99074.72;5041253;28;46586;-68
2023/05/11 03:46:02;;;;;;;;;2.00;2.00;;;;;13.43;67.13;99069.44;5035491;28;45545;-68
2023/05/11 03:48:29;;;;;;;;;5.50;5.00;;;;;13.42;67.51;99060.63;5032003;28;45447;-68
2023/05/11 03:50:55;;;;;;;;;3.50;3.50;;;;;13.43;67.10;99062.34;5033469;28;45416;-68
2023/05/11 03:53:20;;;;;;;;;4.00;3.50;;;;;13.39;67.42;99058.16;5034650;28;46091;-68
2023/05/11 03:55:46;;;;;;;;;5.00;3.75;;;;;13.40;67.47;99059.88;5034760;28;45441;-68
2023/05/11 03:58:11;;;;;;;;;3.00;2.00;;;;;13.39;66.51;99052.00;5036070;28;45437;-68
2023/05/11 04:00:39;;;;;;;;;3.00;1.00;;;;;13.36;66.54;99057.47;5035423;28;45375;-68
2023/05/11 04:03:07;;;;;;;;;3.25;2.75;;;;;13.28;66.13;99055.19;5042626;28;46419;-68
2023/05/11 04:05:33;;;;;;;;;3.80;2.60;;;;;13.22;66.09;99045.81;5023341;28;46272;-68
2023/05/11 04:07:59;;;;;;;;;1.00;1.00;;;;;13.18;66.85;99051.34;5050288;28;45433;-68
2023/05/11 04:10:25;;;;;;;;;3.00;3.00;;;;;13.15;66.98;99043.53;5047005;28;45255;-68
2023/05/11 04:12:51;;;;;;;;;3.00;3.00;;;;;13.15;66.65;99051.50;5051312;28;45640;-68
2023/05/11 04:15:17;;;;;;;;;2.80;2.80;;;;;13.12;67.58;99048.97;5031958;28;45417;-68
2023/05/11 04:17:42;;;;;;;;;4.00;4.00;;;;;13.13;67.64;99062.13;5037712;28;45389;-68
2023/05/11 04:20:08;;;;;;;;;4.50;4.50;;;;;13.11;67.56;99058.69;5039579;28;45553;-68
2023/05/11 04:22:33;;;;;;;;;2.00;2.00;;;;;13.11;67.75;99056.03;5055316;28;46356;-68
2023/05/11 04:24:59;;;;;;;;;4.75;3.00;;;;;13.15;67.84;99052.34;5044686;28;45447;-67
2023/05/11 04:27:24;;;;;;;;;4.50;2.75;;;;;13.16;67.36;99056.72;5049729;28;45536;-67
2023/05/11 04:29:49;;;;;;;;;8.75;7.75;;;;;13.17;67.97;99055.78;5044063;28;45584;-67
2023/05/11 04:32:15;;;;;;;;;2.25;2.25;;;;;13.19;67.31;99050.41;5044655;28;46195;-67
2023/05/11 04:34:40;;;;;;;;;5.00;5.00;;;;;13.23;67.53;99055.47;5028134;28;45466;-68
2023/05/11 04:37:06;;;;;;;;;4.00;4.00;;;;;13.24;67.41;99045.69;5046079;28;45429;-68
2023/05/11 04:39:32;;;;;;;;;2.25;2.25;;;;;13.25;67.28;99042.13;5035940;28;45534;-69
2023/05/11 04:41:58;;;;;;;;;2.50;2.50;;;;;13.26;67.27;99042.03;5054105;28;46481;-68
2023/05/11 04:44:24;;;;;;;;;2.00;2.00;;;;;13.28;67.47;99042.81;5043073;28;45544;-69
2023/05/11 04:46:53;;;;;;;;;3.75;3.75;;;;;13.27;67.47;99050.84;5048503;28;45388;-68
2023/05/11 04:49:18;;;;;;;;;4.50;4.50;;;;;13.28;67.61;99044.63;5039274;28;45290;-69
2023/05/11 04:51:43;;;;;;;;;4.75;4.00;;;;;13.32;67.46;99047.97;5044600;28;45430;-68
2023/05/11 04:54:09;;;;;;;;;5.00;3.00;;;;;13.32;67.38;99047.97;5035781;28;45591;-68
2023/05/11 04:56:39;;;;;;;;;4.25;3.00;;;;;13.30;67.47;99047.19;5044223;28;45559;-69
2023/05/11 04:59:04;;;;;;;;;0.00;0.00;;;;;13.25;67.35;99048.28;5035890;28;45487;-68
2023/05/11 05:01:30;;;;;;;;;3.25;3.25;;;;;13.24;67.71;99051.00;5033920;28;45638;-69
2023/05/11 05:03:55;;;;;;;;;6.75;4.00;;;;;13.25;67.81;99055.34;5042601;28;45401;-68
2023/05/11 05:06:21;;;;;;;;;6.25;3.25;;;;;13.23;68.45;99055.47;5020562;28;45397;-69
2023/05/11 05:08:46;;;;;;;;;4.75;4.50;;;;;13.27;68.59;99059.63;5042708;28;45448;-69
2023/05/11 05:11:11;;;;;;;;;4.50;3.00;;;;;13.33;68.87;99066.41;5023244;28;45421;-68
2023/05/11 05:13:37;;;;;;;;;4.50;4.00;;;;;13.41;68.84;99060.69;5037682;28;45422;-68
2023/05/11 05:16:02;;;;;;;;;6.00;4.75;;;;;13.46;68.85;99061.31;5033699;28;45310;-69
2023/05/11 05:18:28;;;;;;;;;7.00;4.50;;;;;13.53;68.57;99065.38;5040265;28;45519;-69
2023/05/11 05:20:53;;;;;;;;;3.75;3.00;;;;;13.57;67.96;99062.47;5040075;28;45649;-68
2023/05/11 05:23:18;;;;;;;;;2.75;2.75;;;;;13.61;67.85;99050.78;5040277;28;45476;-69
2023/05/11 05:25:44;;;;;;;;;5.75;4.00;;;;;13.65;67.81;99055.91;5038173;28;46029;-69
2023/05/11 05:28:09;;;;;;;;;5.25;4.25;;;;;13.71;67.54;99055.59;5038815;28;45536;-68
2023/05/11 05:30:35;;;;;;;;;4.00;4.00;;;;;13.75;67.69;99057.13;5034758;28;46254;-68
2023/05/11 05:33:01;;;;;;;;;4.00;4.00;;;;;13.81;67.37;99064.75;5045122;28;45382;-68
2023/05/11 05:35:26;;;;;;;;;3.50;3.50;;;;;13.85;67.00;99063.66;5030924;28;45510;-68
2023/05/11 05:37:52;;;;;;;;;8.00;6.00;;;;;13.90;66.68;99061.63;5037997;28;45547;-68
2023/05/11 05:40:17;;;;;;;;;3.50;3.00;;;;;13.94;66.95;99064.00;5023907;28;45525;-68
2023/05/11 05:42:43;;;;;;;;;4.00;3.00;;;;;14.01;66.47;99061.03;5041462;28;45374;-69
2023/05/11 05:45:09;;;;;;;;;6.00;4.00;;;;;14.06;66.61;99062.50;5037647;28;45345;-69
2023/05/11 05:47:34;;;;;;;;;5.25;3.75;;;;;14.12;66.41;99064.78;5034781;28;45488;-69
2023/05/11 05:49:59;;;;;;;;;4.00;4.00;;;;;14.15;66.42;99056.66;5033893;28;46374;-69
2023/05/11 05:52:25;;;;;;;;;2.75;2.75;;;;;14.22;66.10;99065.13;5035004;28;45730;-69
2023/05/11 05:54:50;;;;;;;;;4.00;4.00;;;;;14.24;66.11;99058.78;5032837;28;45429;-69
2023/05/11 05:57:16;;;;;;;;;5.00;5.00;;;;;14.30;65.86;99054.94;5031151;28;45310;-69
2023/05/11 05:59:41;;;;;;;;;6.00;6.00;;;;;14.35;65.73;99060.84;5030538;28;45703;-69
2023/05/11 06:02:07;;;;;;;;;4.00;3.50;;;;;14.43;65.44;99061.28;5034345;28;45402;-69
2023/05/11 06:04:32;;;;;;;;;4.25;4.00;;;;;14.49;64.83;99066.25;5037649;28;45410;-69
2023/05/11 06:06:59;;;;;;;;;2.50;2.00;;;;;14.48;64.69;99059.25;5041615;28;45507;-69
2023/05/11 06:09:24;;;;;;;;;3.50;2.75;;;;;14.38;64.07;99060.69;5040407;28;46113;-69
2023/05/11 06:11:52;;;;;;;;;4.00;3.00;;;;;14.25;64.35;99054.34;5040057;28;45565;-69
2023/05/11 06:14:18;;;;;;;;;4.00;3.00;;;;;14.17;64.63;99057.44;5011401;28;45562;-69
2023/05/11 06:16:43;;;;;;;;;3.00;3.00;;;;;14.11;64.50;99055.13;5030025;28;45375;-69
2023/05/11 06:19:09;;;;;;;;;3.50;3.50;;;;;14.07;64.72;99052.75;5014710;28;47936;-68
2023/05/11 06:21:35;;;;;;;;;3.00;3.00;;;;;14.07;65.13;99058.03;5035386;28;45524;-68
2023/05/11 06:24:00;;;;;;;;;5.50;3.00;;;;;14.01;64.78;99058.38;5043060;28;45358;-69
2023/05/11 06:26:27;;;;;;;;;4.75;4.00;;;;;13.97;65.24;99050.56;5019216;28;45477;-68
2023/05/11 06:28:52;;;;;;;;;2.60;2.60;;;;;13.95;65.26;99048.94;5035579;28;45666;-69
2023/05/11 06:31:18;;;;;;;;;3.00;3.00;;;;;13.90;65.48;99051.00;5032341;28;45457;-69
2023/05/11 06:33:44;;;;;;;;;4.00;3.25;;;;;13.83;65.53;99044.31;5030883;28;45361;-68
2023/05/11 06:36:09;;;;;;;;;4.50;4.50;;;;;13.77;65.16;99037.56;5030933;28;45369;-68
2023/05/11 06:38:35;;;;;;;;;6.25;3.50;;;;;13.73;65.73;99038.69;5030679;28;45466;-68
2023/05/11 06:41:00;;;;;;;;;1.50;1.50;;;;;13.71;65.38;99042.34;5031422;28;45480;-68
2023/05/11 06:43:26;;;;;;;;;3.00;3.00;;;;;13.68;65.88;99040.72;5032694;28;45394;-68
2023/05/11 06:45:51;;;;;;;;;2.00;2.00;;;;;13.70;65.72;99038.84;5030561;28;45465;-69
2023/05/11 06:48:17;;;;;;;;;4.75;3.75;;;;;13.72;65.78;99034.31;5041390;28;45673;-68
2023/05/11 06:50:42;;;;;;;;;4.00;3.00;;;;;13.78;65.74;99046.34;5033337;28;45441;-68
2023/05/11 06:53:09;;;;;;;;;6.00;3.00;;;;;13.78;66.01;99046.34;5043327;28;45483;-68
2023/05/11 06:55:35;;;;;;;;;2.25;2.25;;;;;13.78;66.15;99043.72;5037109;28;46174;-68
2023/05/11 06:58:00;;;;;;;;;4.00;3.00;;;;;13.78;65.59;99043.72;5045619;28;45430;-68
2023/05/11 07:00:25;;;;;;;;;4.00;4.00;;;;;13.81;65.92;99043.56;5034758;28;45352;-69
2023/05/11 07:02:51;;;;;;;;;2.25;2.25;;;;;13.85;65.86;99040.66;5022499;28;45505;-69
2023/05/11 07:05:17;;;;;;;;;4.75;4.00;;;;;13.91;66.08;99036.78;5037843;28;45722;-69
2023/05/11 07:07:42;;;;;;;;;3.25;3.25;;;;;13.96;65.36;99038.25;5047036;28;46579;-69
2023/05/11 07:10:08;;;;;;;;;4.75;4.75;;;;;14.02;65.80;99041.53;5037784;28;45445;-69
2023/05/11 07:12:33;;;;;;;;;4.50;3.00;;;;;14.07;65.33;99042.13;5047057;28;45414;-69
2023/05/11 07:14:59;;;;;;;;;2.00;2.00;;;;;14.09;65.34;99037.56;5030048;28;45420;-69
2023/05/11 07:17:24;;;;;;;;;3.00;3.00;;;;;14.18;65.12;99047.69;5044200;28;45508;-69
2023/05/11 07:19:54;;;;;;;;;5.00;5.00;;;;;14.23;64.98;99037.69;5032718;28;45443;-69
2023/05/11 07:22:19;;;;;;;;;4.00;3.75;;;;;14.29;64.77;99039.97;5022837;28;45602;-69
2023/05/11 07:24:45;;;;;;;;;4.00;3.00;;;;;14.34;64.00;99043.22;5010214;28;45491;-69
2023/05/11 07:27:11;;;;;;;;;2.00;1.50;;;;;14.40;64.16;99040.28;5041403;28;45541;-69
2023/05/11 07:29:36;;;;;;;;;3.75;3.75;;;;;14.46;63.82;99037.25;5032231;28;45358;-69
2023/05/11 07:32:02;;;;;;;;;3.00;3.00;;;;;14.53;63.52;99041.28;5027758;28;45327;-69
2023/05/11 07:34:27;;;;;;;;;3.50;3.25;;;;;14.50;63.61;99041.44;5031957;28;45402;-69
2023/05/11 07:36:53;;;;;;;;;3.50;3.00;;;;;14.46;64.24;99049.66;5046505;28;46360;-69
2023/05/11 07:39:18;;;;;;;;;3.00;3.00;;;;;14.42;64.16;99029.53;5030808;28;45347;-69
2023/05/11 07:41:44;;;;;;;;;2.50;2.50;;;;;14.41;64.38;99038.47;5042616;28;45280;-69
2023/05/11 07:44:10;;;;;;;;;3.00;3.00;;;;;14.36;64.61;99032.53;5017178;28;45584;-69
2023/05/11 07:46:35;;;;;;;;;2.00;2.00;;;;;14.29;64.72;99035.53;5019053;28;47079;-69
2023/05/11 07:49:00;;;;;;;;;2.75;2.75;;;;;14.25;64.98;99031.31;5038603;28;45378;-69
2023/05/11 07:51:26;;;;;;;;;4.25;3.00;;;;;14.27;64.96;99036.53;5032179;28;45372;-69
2023/05/11 07:53:51;;;;;;;;;3.00;3.00;;;;;14.26;65.51;99024.22;5040300;28;45682;-69
2023/05/11 07:56:17;;;;;;;;;4.50;3.00;;;;;14.26;65.19;99032.19;5031391;28;45658;-69
2023/05/11 07:58:42;;;;;;;;;6.25;2.25;;;;;14.25;65.21;99017.22;5031202;28;45523;-69
2023/05/11 08:01:08;;;;;;;;;5.00;3.00;;;;;14.26;65.67;99024.22;5034626;28;45383;-69
2023/05/11 08:03:33;;;;;;;;;3.00;3.00;;;;;14.28;66.04;99012.59;5032191;28;45612;-69
2023/05/11 08:05:59;;;;;;;;;3.50;3.00;;;;;14.29;65.85;99011.66;5033117;28;46224;-69
2023/05/11 08:08:24;;;;;;;;;1.00;1.00;;;;;14.30;65.56;99017.81;5015007;28;45528;-69
2023/05/11 08:10:50;;;;;;;;;2.50;1.50;;;;;14.32;65.30;99002.69;5035689;28;45425;-69
2023/05/11 08:13:17;;;;;;;;;2.00;2.00;;;;;14.39;65.63;99005.84;5041778;28;45461;-69
2023/05/11 08:15:43;;;;;;;;;2.00;2.00;;;;;14.43;65.58;99012.69;5033695;28;46269;-69
2023/05/11 08:18:08;;;;;;;;;5.00;3.75;;;;;14.47;65.66;98999.16;5037025;28;45465;-69
2023/05/11 08:20:34;;;;;;;;;4.00;3.00;;;;;14.49;65.82;99013.19;5040961;28;45350;-69
2023/05/11 08:22:59;;;;;;;;;2.00;2.00;;;;;14.56;66.22;99003.09;5042411;28;45366;-69
2023/05/11 08:25:25;;;;;;;;;2.00;2.00;;;;;14.61;66.11;99011.63;5036237;28;45484;-69
2023/05/11 08:27:50;;;;;;;;;1.75;1.75;;;;;14.70;65.96;99002.28;5041834;28;45353;-69
2023/05/11 08:30:16;;;;;;;;;4.25;3.00;;;;;14.82;65.34;98997.09;5034613;28;45443;-69
2023/05/11 08:32:43;;;;;;;;;3.00;1.60;;;;;14.94;65.36;98990.19;5043572;28;45467;-69
2023/05/11 08:35:08;;;;;;;;;2.00;2.00;;;;;15.06;64.80;98991.28;5036192;28;47148;-69
2023/05/11 08:37:33;;;;;;;;;3.25;3.00;;;;;15.15;64.18;98982.75;5038545;28;45449;-69
2023/05/11 08:39:59;;;;;;;;;1.50;1.50;;;;;15.20;63.51;98978.03;5038605;28;45631;-69
2023/05/11 08:42:28;;;;;;;;;1.50;1.00;;;;;15.25;62.84;98984.75;5028906;28;45568;-69
2023/05/11 08:44:55;;;;;;;;;2.60;2.60;;;;;15.28;62.96;98971.28;5035551;28;46226;-69
2023/05/11 08:47:22;;;;;;;;;2.00;2.00;;;;;15.31;62.47;98987.03;5042894;28;45484;-68
2023/05/11 08:49:47;;;;;;;;;2.00;2.00;;;;;15.25;62.25;98973.25;5041542;28;45486;-69
2023/05/11 08:52:15;;;;;;;;;3.00;3.00;;;;;15.23;62.60;98991.13;5042350;28;45416;-69
2023/05/11 08:54:40;;;;;;;;;5.00;2.80;;;;;15.21;63.16;98971.78;5037055;28;45478;-69
2023/05/11 08:57:06;;;;;;;;;2.00;2.00;;;;;15.25;62.55;98978.56;5042926;28;45470;-69
2023/05/11 08:59:33;;;;;;;;;3.20;2.80;;;;;15.32;62.03;98971.94;5036544;28;45428;-69
2023/05/11 09:01:59;;;;;;;;;1.75;1.75;;;;;15.38;61.91;98962.75;5032913;28;45539;-69
2023/05/11 09:04:26;;;;;;;;;4.00;1.80;;;;;15.40;61.88;98968.84;5046379;28;46578;-69
2023/05/11 09:06:52;;;;;;;;;2.60;2.60;;;;;15.43;61.85;98961.50;5050611;28;45512;-69
2023/05/11 09:09:17;;;;;;;;;3.40;2.60;;;;;15.48;62.10;98955.91;5040883;28;45529;-69
2023/05/11 09:11:44;;;;;;;;;1.75;1.75;;;;;15.55;61.44;98946.63;5039862;28;45377;-69
2023/05/11 09:14:11;;;;;;;;;3.60;2.00;;;;;15.64;61.29;98952.22;5037798;28;45441;-69
2023/05/11 09:16:36;;;;;;;;;0.60;0.20;;;;;15.75;60.61;98940.94;5035834;28;45627;-69
2023/05/11 09:19:02;;;;;;;;;1.25;1.25;;;;;15.83;60.68;98945.72;5040232;28;45371;-70
2023/05/11 09:21:30;;;;;;;;;2.00;2.00;;;;;15.89;59.82;98951.53;5041015;28;45409;-69
2023/05/11 09:23:59;;;;;;;;;1.40;1.40;;;;;15.92;59.71;98942.50;5041478;28;45431;-69
2023/05/11 09:26:28;;;;;;;;;3.00;2.40;;;;;15.88;59.81;98952.47;5033691;28;45523;-69
2023/05/11 09:28:56;;;;;;;;;1.60;1.60;;;;;15.91;59.45;98932.81;5035334;28;45361;-69
2023/05/11 09:31:48;;;;;;;;;2.20;1.20;;;;;15.91;59.41;98946.09;5023773;28;45575;-69
2023/05/11 09:34:21;;;;;;;;;1.20;1.20;;;;;15.95;58.83;98940.47;5022404;28;45439;-69
2023/05/11 09:36:49;;;;;;;;;1.20;1.20;;;;;15.97;58.68;98945.69;5030379;28;45484;-69
2023/05/11 09:39:18;;;;;;;;;0.80;0.60;;;;;16.01;58.61;98939.22;5034757;28;45441;-69
2023/05/11 09:41:44;;;;;;;;;1.80;1.80;;;;;16.02;58.36;98944.44;5047209;28;45426;-70
2023/05/11 09:44:13;;;;;;;;;2.20;1.60;;;;;16.03;57.96;98937.31;5036753;28;45502;-69
2023/05/11 09:46:41;;;;;;;;;0.60;0.60;;;;;16.11;57.18;98926.19;5046178;28;45351;-69
2023/05/11 09:49:07;;;;;;;;;2.80;0.60;;;;;16.10;57.73;98945.75;5044042;28;45520;-69
2023/05/11 09:51:35;;;;;;;;;2.60;1.60;;;;;16.12;57.56;98936.72;5042991;28;45522;-69
2023/05/11 09:54:13;;;;;;;;;2.80;1.60;;;;;16.21;57.36;98921.97;5036178;28;45464;-69
2023/05/11 09:56:55;;;;;;;;;1.80;1.80;;;;;16.23;57.27;98930.72;5048272;28;45422;-69
2023/05/11 09:59:40;;;;;;;;;1.80;1.00;;;;;16.21;57.74;98900.69;5040121;28;45453;-70
2023/05/11 10:02:20;;;;;;;;;1.40;1.40;;;;;16.25;57.47;98904.88;5033434;28;45413;-69
2023/05/11 10:04:46;;;;;;;;;0.60;0.60;;;;;16.29;57.52;98917.84;5045909;28;45624;-69
2023/05/11 10:07:27;;;;;;;;;2.20;2.20;;;;;16.29;57.33;98911.66;5044838;28;45467;-69
2023/05/11 10:09:55;;;;;;;;;3.60;2.00;;;;;16.31;57.07;98897.31;5030214;28;45505;-69
2023/05/11 10:12:22;;;;;;;;;0.80;0.80;;;;;16.32;56.45;98901.66;5039142;28;45573;-69
2023/05/11 10:14:54;;;;;;;;;0.80;0.80;;;;;16.38;56.06;98898.59;5010988;28;47985;-69
2023/05/11 10:17:20;;;;;;;;;1.80;1.40;;;;;16.38;56.71;98892.44;5035208;28;45314;-69
2023/05/11 10:19:47;;;;;;;;;0.75;0.75;;;;;16.39;56.40;98902.13;5032867;28;45451;-69
2023/05/11 10:22:15;;;;;;;;;1.80;1.00;;;;;16.38;55.73;98895.09;5020979;28;45538;-69
2023/05/11 10:24:40;;;;;;;;;0.00;0.00;;;;;16.37;55.87;98888.91;5033626;28;46202;-69
2023/05/11 10:27:06;;;;;;;;;0.75;0.75;;;;;16.38;55.01;98882.66;5035471;28;45454;-69
2023/05/11 10:29:33;;;;;;;;;1.75;1.75;;;;;16.37;55.54;98888.91;5028684;28;45502;-70
2023/05/11 10:32:00;;;;;;;;;1.60;0.80;;;;;16.39;55.67;98886.16;5037873;28;45535;-70
2023/05/11 10:34:28;;;;;;;;;0.80;0.80;;;;;16.43;55.67;98890.28;5025156;28;46293;-69
2023/05/11 10:36:55;;;;;;;;;2.80;0.80;;;;;16.42;55.64;98885.97;5033740;28;45350;-70
2023/05/11 10:39:20;;;;;;;;;3.20;2.00;;;;;16.44;56.38;98891.16;5022864;28;45447;-69
2023/05/11 10:41:56;;;;;;;;;1.50;1.50;;;;;16.48;55.05;98903.31;5037102;28;45519;-69
2023/05/11 10:44:30;;;;;;;;;2.60;2.20;;;;;16.51;54.29;98889.78;5039304;28;45418;-68
2023/05/11 10:47:35;;;;;;;;;0.80;0.80;;;;;16.50;52.78;98896.91;5038066;28;45430;-69
2023/05/11 10:50:16;;;;;;;;;1.00;1.00;;;;;16.53;53.43;98879.91;5019462;28;45654;-69
2023/05/11 10:52:55;;;;;;;;;1.40;0.80;;;;;16.59;52.93;98859.03;5039570;28;45435;-69
2023/05/11 10:55:27;;;;;;;;;3.00;3.00;;;;;16.69;53.83;98849.50;5029487;28;45536;-70
2023/05/11 10:58:06;;;;;;;;;1.00;0.00;;;;;16.81;52.13;98870.88;5039861;28;45420;-69
2023/05/11 11:00:36;;;;;;;;;2.20;2.00;;;;;16.88;52.97;98851.72;5034521;28;45536;-69
2023/05/11 11:03:12;;;;;;;;;1.25;1.25;;;;;16.91;52.51;98875.47;5024178;28;45612;-69
2023/05/11 11:05:38;;;;;;;;;0.00;0.00;;;;;16.92;53.32;98855.03;5042112;28;45746;-70
2023/05/11 11:08:06;;;;;;;;;1.00;1.00;;;;;16.90;53.12;98857.81;5052172;28;45442;-70
2023/05/11 11:10:45;;;;;;;;;1.80;1.80;;;;;16.91;53.15;98867.50;5030136;28;45366;-69
2023/05/11 11:13:15;;;;;;;;;0.60;0.60;;;;;16.97;52.69;98850.22;5045774;28;45532;-69
2023/05/11 11:15:53;;;;;;;;;3.00;2.00;;;;;16.98;53.64;98854.59;5020033;28;45854;-69
2023/05/11 11:18:20;;;;;;;;;1.00;1.00;;;;;16.88;53.45;98859.72;5040998;28;45484;-69
2023/05/11 11:20:48;;;;;;;;;0.00;0.00;;;;;16.82;52.65;98840.66;5047633;28;45489;-69
2023/05/11 11:23:38;;;;;;;;;0.80;0.60;;;;;16.79;51.93;98856.81;5045009;28;45389;-69
2023/05/11 11:26:04;;;;;;;;;1.20;0.20;;;;;16.77;50.95;98858.75;5035903;28;45562;-68
2023/05/11 11:28:59;;;;;;;;;1.00;0.75;;;;;16.72;50.40;98835.97;5037601;28;45461;-69
2023/05/11 11:31:26;;;;;;;;;0.80;0.80;;;;;16.65;50.56;98833.84;5037904;28;45407;-69
2023/05/11 11:33:52;;;;;;;;;2.60;0.80;;;;;16.60;50.66;98823.47;5035368;28;45473;-69
2023/05/11 11:36:17;;;;;;;;;3.75;3.00;;;;;16.54;50.86;98804.44;5018728;28;48260;-69
2023/05/11 11:38:59;;;;;;;;;1.75;1.75;;;;;16.52;50.72;98820.50;5030643;28;45389;-68